createdAt,value
2022-11-10T00:04:49.280Z,1725
2022-11-10T00:10:07.539Z,1725
2022-11-10T00:15:25.742Z,1733
2022-11-10T00:20:44.503Z,1745
2022-11-10T00:26:03.031Z,1743
2022-11-10T00:31:21.790Z,1745
2022-11-10T00:36:39.974Z,1742
2022-11-10T00:41:58.219Z,1736
2022-11-10T00:47:16.963Z,1746
2022-11-10T00:52:35.711Z,1745
2022-11-10T00:57:54.245Z,1720
2022-11-10T01:03:12.727Z,1700
2022-11-10T01:08:31.492Z,1790
2022-11-10T01:13:49.974Z,1753
2022-11-10T01:19:08.430Z,1696
2022-11-10T01:24:27.207Z,1686
2022-11-10T01:29:45.467Z,1687
2022-11-10T01:35:03.913Z,1667
2022-11-10T01:40:22.189Z,1664
2022-11-10T01:45:40.754Z,1660
2022-11-10T01:50:59.234Z,1659
2022-11-10T01:56:17.427Z,1683
2022-11-10T02:01:35.644Z,1673
2022-11-10T02:06:54.155Z,1664
2022-11-10T02:12:12.559Z,1664
2022-11-10T02:17:31.076Z,1669
2022-11-10T02:22:49.249Z,1669
2022-11-10T02:28:07.743Z,1686
2022-11-10T02:33:26.251Z,1673
2022-11-10T02:38:44.425Z,1666
2022-11-10T02:44:02.365Z,1657
2022-11-10T02:49:20.910Z,1659
2022-11-10T02:54:39.086Z,1659
2022-11-10T02:59:57.307Z,1661
2022-11-10T03:05:15.790Z,1659
2022-11-10T03:10:33.986Z,1667
2022-11-10T03:15:52.471Z,1661
2022-11-10T03:21:11.276Z,1651
2022-11-10T03:26:29.568Z,1653
2022-11-10T03:31:48.316Z,1646
2022-11-10T03:37:06.587Z,1639
2022-11-10T03:42:24.782Z,1641
2022-11-10T03:47:43.006Z,1637
2022-11-10T03:53:01.773Z,1622
2022-11-10T03:58:19.954Z,1625
2022-11-10T04:03:38.431Z,1626
2022-11-10T04:08:56.979Z,1633
2022-11-10T04:14:15.434Z,1632
2022-11-10T04:19:34.207Z,1627
2022-11-10T04:24:52.737Z,1618
2022-11-10T04:30:10.617Z,1622
2022-11-10T04:35:29.427Z,1631
2022-11-10T04:40:47.344Z,1646
2022-11-10T04:46:06.093Z,1644
2022-11-10T04:51:24.644Z,1639
2022-11-10T04:56:42.795Z,1610
2022-11-10T05:02:01.253Z,1583
2022-11-10T05:07:19.757Z,1568
2022-11-10T05:12:38.544Z,1563
2022-11-10T05:17:57.025Z,1571
2022-11-10T05:23:15.779Z,1574
2022-11-10T05:28:34.576Z,1573
2022-11-10T05:33:53.043Z,1032
2022-11-10T05:39:11.808Z,942
2022-11-10T05:44:30.623Z,853
2022-11-10T05:49:49.102Z,845
2022-11-10T05:55:07.839Z,1034
2022-11-10T06:00:26.771Z,1108
2022-11-10T06:05:44.959Z,1145
2022-11-10T06:11:03.432Z,1183
2022-11-10T06:16:22.238Z,1203
2022-11-10T06:21:40.985Z,1203
2022-11-10T06:26:59.757Z,1205
2022-11-10T06:32:18.539Z,1200
2022-11-10T06:37:37.028Z,1202
2022-11-10T06:42:55.497Z,1193
2022-11-10T06:48:14.027Z,1188
2022-11-10T06:53:32.881Z,1189
2022-11-10T06:58:52.160Z,1187
2022-11-10T07:04:19.502Z,1185
2022-11-10T07:09:39.329Z,1176
2022-11-10T07:14:57.212Z,1171
2022-11-10T07:20:15.724Z,1170
2022-11-10T07:25:34.218Z,1163
2022-11-10T07:30:52.405Z,1154
2022-11-10T07:36:11.217Z,1148
2022-11-10T07:41:29.712Z,1150
2022-11-10T07:46:48.196Z,1151
2022-11-10T07:52:07.017Z,1196
2022-11-10T07:57:25.742Z,1212
2022-11-10T08:02:44.519Z,1222
2022-11-10T08:08:02.739Z,1220
2022-11-10T08:13:21.680Z,1215
2022-11-10T08:18:40.851Z,1210
2022-11-10T08:23:59.609Z,1205
2022-11-10T08:29:17.796Z,1208
2022-11-10T08:34:35.992Z,1204
2022-11-10T08:39:54.511Z,1205
2022-11-10T08:45:12.973Z,1205
2022-11-10T08:50:31.494Z,1208
2022-11-10T08:55:49.750Z,1208
2022-11-10T09:01:08.328Z,1210
2022-11-10T09:06:26.521Z,1213
2022-11-10T09:11:45.316Z,1216
2022-11-10T09:17:03.483Z,1218
2022-11-10T09:22:22.241Z,1215
2022-11-10T09:27:40.492Z,1217
2022-11-10T09:32:58.974Z,1213
2022-11-10T09:38:17.725Z,1216
2022-11-10T09:43:35.973Z,1221
2022-11-10T09:48:54.186Z,1228
2022-11-10T09:54:12.633Z,1227
2022-11-10T09:59:30.876Z,1238
2022-11-10T10:04:52.015Z,1241
2022-11-10T10:10:14.458Z,1235
2022-11-10T10:15:36.273Z,1234
2022-11-10T10:20:54.775Z,1232
2022-11-10T10:26:12.984Z,1237
2022-11-10T10:31:31.508Z,1233
2022-11-10T10:36:49.694Z,1227
2022-11-10T10:42:08.185Z,1217
2022-11-10T10:47:26.942Z,1210
2022-11-10T10:52:45.696Z,1204
2022-11-10T10:58:03.908Z,1198
2022-11-10T11:03:22.456Z,1190
2022-11-10T11:08:40.895Z,1183
2022-11-10T11:13:59.615Z,1177
2022-11-10T11:19:17.818Z,1167
2022-11-10T11:24:36.581Z,1164
2022-11-10T11:29:55.046Z,1153
2022-11-10T11:35:13.292Z,1147
2022-11-10T11:40:31.495Z,1145
2022-11-10T11:45:49.965Z,1139
2022-11-10T11:51:08.461Z,1128
2022-11-10T11:56:26.713Z,1122
2022-11-10T12:01:45.212Z,1108
2022-11-10T12:07:04.063Z,1107
2022-11-10T12:12:22.599Z,1108
2022-11-10T12:17:41.362Z,1105
2022-11-10T12:22:59.604Z,1097
2022-11-10T12:28:18.092Z,1098
2022-11-10T12:33:37.257Z,1094
2022-11-10T12:39:00.318Z,1086
2022-11-10T12:44:18.982Z,1074
2022-11-10T12:49:37.453Z,1073
2022-11-10T12:54:55.703Z,1068
2022-11-10T13:00:18.737Z,1067
2022-11-10T13:05:46.560Z,1066
2022-11-10T13:11:05.068Z,1067
2022-11-10T13:16:23.527Z,1072
2022-11-10T13:21:42.021Z,1073
2022-11-10T13:27:00.947Z,1081
2022-11-10T13:32:19.191Z,1084
2022-11-10T13:37:37.378Z,1088
2022-11-10T13:42:56.191Z,1082
2022-11-10T13:48:14.919Z,1086
2022-11-10T13:53:33.685Z,1089
2022-11-10T13:58:52.189Z,1101
2022-11-10T14:04:10.694Z,1098
2022-11-10T14:09:29.353Z,1099
2022-11-10T14:14:53.693Z,1106
2022-11-10T14:19:56.287Z,1096
2022-11-10T14:25:14.736Z,1094
2022-11-10T14:30:33.347Z,1093
2022-11-10T14:35:52.049Z,1090
2022-11-10T14:41:09.980Z,1088
2022-11-10T14:46:28.851Z,1094
2022-11-10T14:51:47.209Z,1089
2022-11-10T14:57:05.419Z,1088
2022-11-10T15:02:24.335Z,1082
2022-11-10T15:07:43.337Z,1082
2022-11-10T15:13:02.108Z,1082
2022-11-10T15:18:21.377Z,1085
2022-11-10T15:23:41.156Z,1089
2022-11-10T15:28:59.643Z,1089
2022-11-10T15:34:18.244Z,1101
2022-11-10T15:39:37.008Z,1113
2022-11-10T15:44:55.876Z,1108
2022-11-10T15:50:14.196Z,1103
2022-11-10T15:55:32.397Z,1105
2022-11-10T16:00:50.879Z,1105
2022-11-10T16:06:09.495Z,1106
2022-11-10T16:11:27.685Z,1111
2022-11-10T16:16:45.908Z,1109
2022-11-10T16:22:04.227Z,1108
2022-11-10T16:27:22.407Z,1102
2022-11-10T16:32:40.307Z,1101
2022-11-10T16:37:58.948Z,1111
2022-11-10T16:43:17.639Z,1124
2022-11-10T16:48:36.450Z,1131
2022-11-10T16:53:55.314Z,1137
2022-11-10T16:59:13.508Z,1141
2022-11-10T17:04:31.971Z,1140
2022-11-10T17:09:50.900Z,1144
2022-11-10T17:15:09.686Z,1147
2022-11-10T17:20:28.470Z,1153
2022-11-10T17:25:47.347Z,1165
2022-11-10T17:31:05.783Z,1177
2022-11-10T17:36:23.993Z,1179
2022-11-10T17:41:42.870Z,1273
2022-11-10T17:46:45.949Z,1249
2022-11-10T17:52:04.473Z,1253
2022-11-10T17:57:23.343Z,1215
2022-11-10T18:02:42.223Z,1135
2022-11-10T18:08:00.988Z,1090
2022-11-10T18:13:20.081Z,1070
2022-11-10T18:18:39.449Z,1078
2022-11-10T18:23:58.181Z,1102
2022-11-10T18:29:16.792Z,1091
2022-11-10T18:34:35.664Z,1066
2022-11-10T18:39:54.510Z,1067
2022-11-10T18:45:13.401Z,1015
2022-11-10T18:50:32.336Z,1004
2022-11-10T18:55:51.166Z,1004
2022-11-10T19:01:10.055Z,994
2022-11-10T19:06:29.357Z,985
2022-11-10T19:11:48.287Z,1001
2022-11-10T19:16:51.543Z,1009
2022-11-10T19:22:10.026Z,1025
2022-11-10T19:27:28.504Z,1030
2022-11-10T19:32:46.873Z,1035
2022-11-10T19:37:49.734Z,1020
2022-11-10T19:43:08.235Z,1017
2022-11-10T19:48:26.857Z,1034
2022-11-10T19:53:45.433Z,1052
2022-11-10T19:59:03.868Z,1073
2022-11-10T20:04:06.611Z,1116
2022-11-10T20:09:24.937Z,1125
2022-11-10T20:14:43.649Z,1122
2022-11-10T20:20:01.904Z,1176
2022-11-10T20:25:20.496Z,1017
2022-11-10T20:30:38.957Z,1064
2022-11-10T20:35:57.295Z,1090
2022-11-10T20:41:15.432Z,1110
2022-11-10T20:46:53.268Z,1116
2022-11-10T20:52:13.693Z,1134
2022-11-10T20:57:32.127Z,1163
2022-11-10T21:02:50.871Z,1186
2022-11-10T21:08:09.232Z,1224
2022-11-10T21:13:28.404Z,1236
2022-11-10T21:18:47.156Z,1266
2022-11-10T21:24:05.763Z,1292
2022-11-10T21:29:24.251Z,1304
2022-11-10T21:34:42.579Z,1318
2022-11-10T21:40:04.332Z,1342
2022-11-10T21:45:22.802Z,1352
2022-11-10T21:50:41.252Z,1377
2022-11-10T21:56:00.135Z,1399
2022-11-10T22:01:19.086Z,1410
2022-11-10T22:06:37.881Z,1436
2022-11-10T22:11:40.379Z,1450
2022-11-10T22:16:58.550Z,1464
2022-11-10T22:22:17.019Z,1472
2022-11-10T22:27:35.928Z,1467
2022-11-10T22:32:54.244Z,1483
2022-11-10T22:38:13.037Z,1491
2022-11-10T22:43:31.361Z,1496
2022-11-10T22:48:50.048Z,1501
2022-11-10T22:54:08.864Z,1499
2022-11-10T22:59:27.724Z,1499
2022-11-10T23:04:46.752Z,1495
2022-11-10T23:10:04.961Z,1254
2022-11-10T23:15:23.572Z,1321
2022-11-10T23:20:42.181Z,1423
2022-11-10T23:26:00.414Z,1452
2022-11-10T23:31:19.272Z,1468
2022-11-10T23:36:37.800Z,1481
2022-11-10T23:41:40.624Z,1487
2022-11-10T23:46:58.964Z,1495
2022-11-10T23:52:17.420Z,1500
2022-11-10T23:57:36.228Z,1495
